sensor_id;sensor_type;location;lat;lon;timestamp;P1;durP1;ratioP1;P2;durP2;ratioP2
7440;SDS011;29616;51.950;8.572;2022-09-09T00:00:32;6.78;;;2.55;;
7440;SDS011;29616;51.950;8.572;2022-09-09T00:03:05;8.85;;;2.20;;
7440;SDS011;29616;51.950;8.572;2022-09-09T00:05:43;4.28;;;2.10;;
7440;SDS011;29616;51.950;8.572;2022-09-09T00:08:20;6.82;;;2.30;;
7440;SDS011;29616;51.950;8.572;2022-09-09T00:10:59;5.65;;;2.45;;
7440;SDS011;29616;51.950;8.572;2022-09-09T00:13:32;6.03;;;2.83;;
7440;SDS011;29616;51.950;8.572;2022-09-09T00:16:10;4.40;;;2.50;;
7440;SDS011;29616;51.950;8.572;2022-09-09T00:18:48;10.45;;;2.50;;
7440;SDS011;29616;51.950;8.572;2022-09-09T00:21:30;8.80;;;2.45;;
7440;SDS011;29616;51.950;8.572;2022-09-09T00:24:04;9.07;;;2.63;;
7440;SDS011;29616;51.950;8.572;2022-09-09T00:29:14;7.82;;;3.42;;
7440;SDS011;29616;51.950;8.572;2022-09-09T00:31:54;5.82;;;2.78;;
7440;SDS011;29616;51.950;8.572;2022-09-09T00:34:29;4.35;;;2.35;;
7440;SDS011;29616;51.950;8.572;2022-09-09T00:36:59;3.67;;;2.55;;
7440;SDS011;29616;51.950;8.572;2022-09-09T00:39:31;3.92;;;2.13;;
7440;SDS011;29616;51.950;8.572;2022-09-09T00:42:09;5.65;;;2.40;;
7440;SDS011;29616;51.950;8.572;2022-09-09T00:44:49;8.45;;;2.40;;
7440;SDS011;29616;51.950;8.572;2022-09-09T00:50:34;6.10;;;2.05;;
7440;SDS011;29616;51.950;8.572;2022-09-09T00:53:16;3.25;;;1.83;;
7440;SDS011;29616;51.950;8.572;2022-09-09T00:56:00;4.25;;;2.05;;
7440;SDS011;29616;51.950;8.572;2022-09-09T00:58:40;8.98;;;2.72;;
7440;SDS011;29616;51.950;8.572;2022-09-09T01:01:11;7.88;;;2.28;;
7440;SDS011;29616;51.950;8.572;2022-09-09T01:03:43;5.30;;;1.98;;
7440;SDS011;29616;51.950;8.572;2022-09-09T01:06:20;7.97;;;2.63;;
7440;SDS011;29616;51.950;8.572;2022-09-09T01:09:00;5.72;;;2.33;;
7440;SDS011;29616;51.950;8.572;2022-09-09T01:11:49;4.05;;;2.38;;
7440;SDS011;29616;51.950;8.572;2022-09-09T01:14:32;6.15;;;2.30;;
7440;SDS011;29616;51.950;8.572;2022-09-09T01:17:11;6.15;;;2.80;;
7440;SDS011;29616;51.950;8.572;2022-09-09T01:19:57;7.60;;;2.30;;
7440;SDS011;29616;51.950;8.572;2022-09-09T01:22:44;4.38;;;2.05;;
7440;SDS011;29616;51.950;8.572;2022-09-09T01:25:28;3.45;;;1.92;;
7440;SDS011;29616;51.950;8.572;2022-09-09T01:28:36;4.68;;;2.10;;
7440;SDS011;29616;51.950;8.572;2022-09-09T01:31:11;5.68;;;2.42;;
7440;SDS011;29616;51.950;8.572;2022-09-09T01:33:47;4.75;;;2.38;;
7440;SDS011;29616;51.950;8.572;2022-09-09T01:36:21;5.47;;;2.47;;
7440;SDS011;29616;51.950;8.572;2022-09-09T01:38:57;4.72;;;2.30;;
7440;SDS011;29616;51.950;8.572;2022-09-09T01:41:28;5.60;;;2.83;;
7440;SDS011;29616;51.950;8.572;2022-09-09T01:44:02;5.43;;;3.00;;
7440;SDS011;29616;51.950;8.572;2022-09-09T01:46:32;6.53;;;3.13;;
7440;SDS011;29616;51.950;8.572;2022-09-09T01:49:02;4.95;;;2.60;;
7440;SDS011;29616;51.950;8.572;2022-09-09T01:51:34;7.60;;;2.65;;
7440;SDS011;29616;51.950;8.572;2022-09-09T01:54:06;5.40;;;2.63;;
7440;SDS011;29616;51.950;8.572;2022-09-09T01:56:39;17.40;;;6.50;;
7440;SDS011;29616;51.950;8.572;2022-09-09T02:15:11;7.63;;;3.42;;
7440;SDS011;29616;51.950;8.572;2022-09-09T02:17:48;9.75;;;2.80;;
7440;SDS011;29616;51.950;8.572;2022-09-09T02:20:19;8.63;;;2.70;;
7440;SDS011;29616;51.950;8.572;2022-09-09T02:22:54;7.10;;;2.60;;
7440;SDS011;29616;51.950;8.572;2022-09-09T02:25:26;6.03;;;2.83;;
7440;SDS011;29616;51.950;8.572;2022-09-09T02:28:07;5.68;;;2.90;;
7440;SDS011;29616;51.950;8.572;2022-09-09T02:30:37;5.10;;;2.90;;
7440;SDS011;29616;51.950;8.572;2022-09-09T02:33:07;5.90;;;3.30;;
7440;SDS011;29616;51.950;8.572;2022-09-09T02:35:47;10.57;;;3.25;;
7440;SDS011;29616;51.950;8.572;2022-09-09T02:38:20;6.22;;;3.25;;
7440;SDS011;29616;51.950;8.572;2022-09-09T02:41:00;8.80;;;3.80;;
7440;SDS011;29616;51.950;8.572;2022-09-09T02:43:32;6.38;;;3.63;;
7440;SDS011;29616;51.950;8.572;2022-09-09T02:46:08;8.60;;;3.28;;
7440;SDS011;29616;51.950;8.572;2022-09-09T02:48:52;10.10;;;3.35;;
7440;SDS011;29616;51.950;8.572;2022-09-09T02:51:33;7.07;;;3.13;;
7440;SDS011;29616;51.950;8.572;2022-09-09T02:54:10;9.25;;;3.45;;
7440;SDS011;29616;51.950;8.572;2022-09-09T02:56:49;12.43;;;3.90;;
7440;SDS011;29616;51.950;8.572;2022-09-09T02:59:32;7.75;;;3.55;;
7440;SDS011;29616;51.950;8.572;2022-09-09T03:02:01;6.43;;;3.40;;
7440;SDS011;29616;51.950;8.572;2022-09-09T03:04:31;8.75;;;3.30;;
7440;SDS011;29616;51.950;8.572;2022-09-09T03:06:59;7.07;;;3.25;;
7440;SDS011;29616;51.950;8.572;2022-09-09T03:09:30;6.18;;;2.75;;
7440;SDS011;29616;51.950;8.572;2022-09-09T03:11:58;7.60;;;3.05;;
7440;SDS011;29616;51.950;8.572;2022-09-09T03:14:29;8.52;;;3.45;;
7440;SDS011;29616;51.950;8.572;2022-09-09T03:17:00;10.00;;;3.65;;
7440;SDS011;29616;51.950;8.572;2022-09-09T03:19:34;9.73;;;3.60;;
7440;SDS011;29616;51.950;8.572;2022-09-09T03:22:05;7.13;;;3.25;;
7440;SDS011;29616;51.950;8.572;2022-09-09T03:24:38;8.90;;;2.97;;
7440;SDS011;29616;51.950;8.572;2022-09-09T03:27:07;10.50;;;3.15;;
7440;SDS011;29616;51.950;8.572;2022-09-09T03:29:37;8.40;;;3.83;;
7440;SDS011;29616;51.950;8.572;2022-09-09T03:32:11;9.40;;;3.20;;
7440;SDS011;29616;51.950;8.572;2022-09-09T03:34:39;15.27;;;3.90;;
7440;SDS011;29616;51.950;8.572;2022-09-09T05:57:05;86.70;;;27.00;;
7440;SDS011;29616;51.950;8.572;2022-09-09T05:59:33;168.88;;;65.90;;
7440;SDS011;29616;51.950;8.572;2022-09-09T06:02:03;126.25;;;63.20;;
7440;SDS011;29616;51.950;8.572;2022-09-09T07:22:43;93.80;;;27.50;;
7440;SDS011;29616;51.950;8.572;2022-09-09T07:25:11;5.55;;;2.80;;
7440;SDS011;29616;51.950;8.572;2022-09-09T07:27:41;6.40;;;2.55;;
7440;SDS011;29616;51.950;8.572;2022-09-09T07:50:16;97.75;;;26.75;;
7440;SDS011;29616;51.950;8.572;2022-09-09T08:07:44;137.77;;;64.10;;
7440;SDS011;29616;51.950;8.572;2022-09-09T08:10:13;6.88;;;1.88;;
7440;SDS011;29616;51.950;8.572;2022-09-09T08:12:45;3.38;;;1.40;;
7440;SDS011;29616;51.950;8.572;2022-09-09T08:15:35;6.65;;;1.60;;
7440;SDS011;29616;51.950;8.572;2022-09-09T08:18:03;5.10;;;1.70;;
7440;SDS011;29616;51.950;8.572;2022-09-09T08:20:34;7.13;;;1.77;;
7440;SDS011;29616;51.950;8.572;2022-09-09T08:23:04;4.50;;;1.20;;
7440;SDS011;29616;51.950;8.572;2022-09-09T08:25:33;6.30;;;1.48;;
7440;SDS011;29616;51.950;8.572;2022-09-09T08:28:02;5.47;;;1.67;;
7440;SDS011;29616;51.950;8.572;2022-09-09T08:30:30;7.80;;;1.60;;
7440;SDS011;29616;51.950;8.572;2022-09-09T08:32:59;2.95;;;1.10;;
7440;SDS011;29616;51.950;8.572;2022-09-09T08:35:27;4.70;;;1.10;;
7440;SDS011;29616;51.950;8.572;2022-09-09T08:40:36;4.25;;;1.27;;
7440;SDS011;29616;51.950;8.572;2022-09-09T08:43:12;6.55;;;1.50;;
7440;SDS011;29616;51.950;8.572;2022-09-09T08:48:23;2.67;;;0.90;;
7440;SDS011;29616;51.950;8.572;2022-09-09T08:51:09;4.03;;;1.10;;
7440;SDS011;29616;51.950;8.572;2022-09-09T08:53:42;3.08;;;1.00;;
7440;SDS011;29616;51.950;8.572;2022-09-09T08:56:15;3.05;;;1.10;;
7440;SDS011;29616;51.950;8.572;2022-09-09T08:58:52;5.07;;;1.10;;
7440;SDS011;29616;51.950;8.572;2022-09-09T09:04:37;2.42;;;1.10;;
7440;SDS011;29616;51.950;8.572;2022-09-09T09:07:18;1.92;;;0.85;;
7440;SDS011;29616;51.950;8.572;2022-09-09T09:10:04;5.43;;;0.90;;
7440;SDS011;29616;51.950;8.572;2022-09-09T09:13:02;1.58;;;0.80;;
7440;SDS011;29616;51.950;8.572;2022-09-09T09:15:33;2.42;;;1.00;;
7440;SDS011;29616;51.950;8.572;2022-09-09T09:18:08;2.95;;;1.08;;
7440;SDS011;29616;51.950;8.572;2022-09-09T09:20:46;3.15;;;0.85;;
7440;SDS011;29616;51.950;8.572;2022-09-09T09:23:25;2.78;;;1.00;;
7440;SDS011;29616;51.950;8.572;2022-09-09T09:26:06;1.52;;;0.95;;
7440;SDS011;29616;51.950;8.572;2022-09-09T09:28:37;2.75;;;1.10;;
7440;SDS011;29616;51.950;8.572;2022-09-09T09:31:13;3.25;;;0.90;;
7440;SDS011;29616;51.950;8.572;2022-09-09T09:33:46;0.90;;;0.80;;
7440;SDS011;29616;51.950;8.572;2022-09-09T09:36:24;5.88;;;1.23;;
7440;SDS011;29616;51.950;8.572;2022-09-09T09:39:03;4.05;;;0.93;;
7440;SDS011;29616;51.950;8.572;2022-09-09T09:41:54;1.73;;;0.80;;
7440;SDS011;29616;51.950;8.572;2022-09-09T09:44:25;3.75;;;1.00;;
7440;SDS011;29616;51.950;8.572;2022-09-09T09:47:06;2.15;;;1.00;;
7440;SDS011;29616;51.950;8.572;2022-09-09T09:49:35;2.92;;;1.10;;
7440;SDS011;29616;51.950;8.572;2022-09-09T09:52:04;2.97;;;0.93;;
7440;SDS011;29616;51.950;8.572;2022-09-09T09:54:37;3.42;;;1.08;;
7440;SDS011;29616;51.950;8.572;2022-09-09T09:57:10;3.13;;;1.40;;
7440;SDS011;29616;51.950;8.572;2022-09-09T09:59:43;3.95;;;1.60;;
7440;SDS011;29616;51.950;8.572;2022-09-09T10:02:20;5.25;;;1.42;;
7440;SDS011;29616;51.950;8.572;2022-09-09T10:05:00;2.72;;;0.93;;
7440;SDS011;29616;51.950;8.572;2022-09-09T10:07:32;4.57;;;2.33;;
7440;SDS011;29616;51.950;8.572;2022-09-09T10:10:04;2.50;;;1.00;;
7440;SDS011;29616;51.950;8.572;2022-09-09T10:12:42;4.07;;;1.40;;
7440;SDS011;29616;51.950;8.572;2022-09-09T10:15:26;2.47;;;0.70;;
7440;SDS011;29616;51.950;8.572;2022-09-09T10:18:08;2.50;;;1.10;;
7440;SDS011;29616;51.950;8.572;2022-09-09T10:21:03;1.60;;;0.90;;
7440;SDS011;29616;51.950;8.572;2022-09-09T10:23:51;4.78;;;1.17;;
7440;SDS011;29616;51.950;8.572;2022-09-09T10:26:40;1.20;;;0.90;;
7440;SDS011;29616;51.950;8.572;2022-09-09T10:29:26;4.43;;;1.02;;
7440;SDS011;29616;51.950;8.572;2022-09-09T10:32:28;3.22;;;1.23;;
7440;SDS011;29616;51.950;8.572;2022-09-09T10:35:09;4.13;;;1.02;;
7440;SDS011;29616;51.950;8.572;2022-09-09T10:37:48;4.97;;;1.00;;
7440;SDS011;29616;51.950;8.572;2022-09-09T10:40:38;4.80;;;1.33;;
7440;SDS011;29616;51.950;8.572;2022-09-09T10:43:13;4.20;;;1.25;;
7440;SDS011;29616;51.950;8.572;2022-09-09T10:46:03;8.60;;;1.60;;
7440;SDS011;29616;51.950;8.572;2022-09-09T10:48:43;4.60;;;0.95;;
7440;SDS011;29616;51.950;8.572;2022-09-09T10:51:33;3.22;;;1.65;;
7440;SDS011;29616;51.950;8.572;2022-09-09T10:54:18;2.70;;;0.90;;
7440;SDS011;29616;51.950;8.572;2022-09-09T10:57:00;1.80;;;0.80;;
7440;SDS011;29616;51.950;8.572;2022-09-09T10:59:33;2.70;;;1.10;;
7440;SDS011;29616;51.950;8.572;2022-09-09T11:02:12;4.45;;;1.20;;
7440;SDS011;29616;51.950;8.572;2022-09-09T11:04:48;2.08;;;0.88;;
7440;SDS011;29616;51.950;8.572;2022-09-09T11:07:24;3.40;;;1.15;;
7440;SDS011;29616;51.950;8.572;2022-09-09T11:09:59;6.22;;;1.58;;
7440;SDS011;29616;51.950;8.572;2022-09-09T11:12:33;3.47;;;1.52;;
7440;SDS011;29616;51.950;8.572;2022-09-09T11:15:08;4.40;;;1.00;;
7440;SDS011;29616;51.950;8.572;2022-09-09T11:17:49;5.30;;;1.25;;
7440;SDS011;29616;51.950;8.572;2022-09-09T11:20:23;2.97;;;0.95;;
7440;SDS011;29616;51.950;8.572;2022-09-09T11:22:55;2.13;;;1.10;;
7440;SDS011;29616;51.950;8.572;2022-09-09T11:25:31;3.85;;;1.35;;
7440;SDS011;29616;51.950;8.572;2022-09-09T11:31:15;3.17;;;1.15;;
7440;SDS011;29616;51.950;8.572;2022-09-09T11:34:03;3.17;;;1.10;;
7440;SDS011;29616;51.950;8.572;2022-09-09T11:42:47;4.38;;;1.00;;
7440;SDS011;29616;51.950;8.572;2022-09-09T11:45:21;4.45;;;1.58;;
7440;SDS011;29616;51.950;8.572;2022-09-09T11:47:55;2.88;;;1.20;;
7440;SDS011;29616;51.950;8.572;2022-09-09T11:50:30;3.25;;;1.30;;
7440;SDS011;29616;51.950;8.572;2022-09-09T11:53:05;1.33;;;1.00;;
7440;SDS011;29616;51.950;8.572;2022-09-09T11:56:05;5.72;;;1.40;;
7440;SDS011;29616;51.950;8.572;2022-09-09T11:58:38;3.60;;;1.30;;
7440;SDS011;29616;51.950;8.572;2022-09-09T12:01:14;2.78;;;1.67;;
7440;SDS011;29616;51.950;8.572;2022-09-09T12:06:50;2.22;;;1.00;;
7440;SDS011;29616;51.950;8.572;2022-09-09T12:09:25;2.03;;;0.90;;
7440;SDS011;29616;51.950;8.572;2022-09-09T12:12:07;2.70;;;0.88;;
7440;SDS011;29616;51.950;8.572;2022-09-09T12:14:55;3.33;;;0.97;;
7440;SDS011;29616;51.950;8.572;2022-09-09T12:17:46;3.30;;;1.10;;
7440;SDS011;29616;51.950;8.572;2022-09-09T12:20:18;3.40;;;0.95;;
7440;SDS011;29616;51.950;8.572;2022-09-09T12:23:01;3.35;;;0.82;;
7440;SDS011;29616;51.950;8.572;2022-09-09T12:26:01;2.95;;;1.40;;
7440;SDS011;29616;51.950;8.572;2022-09-09T12:28:49;1.33;;;0.80;;
7440;SDS011;29616;51.950;8.572;2022-09-09T12:31:33;1.35;;;0.70;;
7440;SDS011;29616;51.950;8.572;2022-09-09T12:34:11;2.75;;;1.00;;
7440;SDS011;29616;51.950;8.572;2022-09-09T12:36:46;3.13;;;1.00;;
7440;SDS011;29616;51.950;8.572;2022-09-09T12:39:31;2.50;;;1.17;;
7440;SDS011;29616;51.950;8.572;2022-09-09T12:42:03;3.17;;;0.90;;
7440;SDS011;29616;51.950;8.572;2022-09-09T12:44:32;2.40;;;0.90;;
7440;SDS011;29616;51.950;8.572;2022-09-09T12:47:00;2.20;;;1.70;;
7440;SDS011;29616;51.950;8.572;2022-09-09T12:49:31;3.05;;;0.90;;
7440;SDS011;29616;51.950;8.572;2022-09-09T12:52:03;3.58;;;1.05;;
7440;SDS011;29616;51.950;8.572;2022-09-09T12:57:04;2.25;;;0.90;;
7440;SDS011;29616;51.950;8.572;2022-09-09T12:59:38;3.65;;;1.13;;
7440;SDS011;29616;51.950;8.572;2022-09-09T13:02:11;2.72;;;1.10;;
7440;SDS011;29616;51.950;8.572;2022-09-09T13:04:47;1.38;;;0.70;;
7440;SDS011;29616;51.950;8.572;2022-09-09T13:07:17;3.10;;;0.82;;
7440;SDS011;29616;51.950;8.572;2022-09-09T13:09:48;3.55;;;0.80;;
7440;SDS011;29616;51.950;8.572;2022-09-09T13:12:17;0.90;;;0.90;;
7440;SDS011;29616;51.950;8.572;2022-09-09T13:14:49;2.70;;;1.10;;
7440;SDS011;29616;51.950;8.572;2022-09-09T13:17:21;2.08;;;1.15;;
7440;SDS011;29616;51.950;8.572;2022-09-09T13:19:51;2.92;;;1.20;;
7440;SDS011;29616;51.950;8.572;2022-09-09T13:22:27;3.50;;;1.30;;
7440;SDS011;29616;51.950;8.572;2022-09-09T13:25:02;4.43;;;1.50;;
7440;SDS011;29616;51.950;8.572;2022-09-09T13:27:34;3.45;;;1.30;;
7440;SDS011;29616;51.950;8.572;2022-09-09T13:33:03;3.20;;;1.20;;
7440;SDS011;29616;51.950;8.572;2022-09-09T13:35:49;3.60;;;1.15;;
7440;SDS011;29616;51.950;8.572;2022-09-09T13:38:21;2.97;;;1.00;;
7440;SDS011;29616;51.950;8.572;2022-09-09T13:40:55;1.10;;;0.70;;
7440;SDS011;29616;51.950;8.572;2022-09-09T13:43:25;5.05;;;0.88;;
7440;SDS011;29616;51.950;8.572;2022-09-09T13:45:55;3.50;;;1.00;;
7440;SDS011;29616;51.950;8.572;2022-09-09T13:50:58;3.75;;;1.02;;
7440;SDS011;29616;51.950;8.572;2022-09-09T13:53:29;2.67;;;0.80;;
7440;SDS011;29616;51.950;8.572;2022-09-09T13:55:59;3.33;;;1.02;;
7440;SDS011;29616;51.950;8.572;2022-09-09T13:58:28;2.83;;;1.10;;
7440;SDS011;29616;51.950;8.572;2022-09-09T14:00:56;1.48;;;0.80;;
7440;SDS011;29616;51.950;8.572;2022-09-09T14:03:25;1.73;;;0.90;;
7440;SDS011;29616;51.950;8.572;2022-09-09T14:05:53;2.70;;;1.02;;
7440;SDS011;29616;51.950;8.572;2022-09-09T14:08:24;1.65;;;0.90;;
7440;SDS011;29616;51.950;8.572;2022-09-09T14:10:55;2.75;;;1.05;;
7440;SDS011;29616;51.950;8.572;2022-09-09T14:13:24;2.75;;;0.80;;
7440;SDS011;29616;51.950;8.572;2022-09-09T14:15:53;2.00;;;0.90;;
7440;SDS011;29616;51.950;8.572;2022-09-09T14:18:21;2.00;;;0.80;;
7440;SDS011;29616;51.950;8.572;2022-09-09T14:20:51;3.78;;;1.10;;
7440;SDS011;29616;51.950;8.572;2022-09-09T14:23:20;1.50;;;1.00;;
7440;SDS011;29616;51.950;8.572;2022-09-09T14:25:48;2.28;;;0.70;;
7440;SDS011;29616;51.950;8.572;2022-09-09T14:28:17;2.20;;;1.02;;
7440;SDS011;29616;51.950;8.572;2022-09-09T14:31:06;2.17;;;0.80;;
7440;SDS011;29616;51.950;8.572;2022-09-09T14:33:35;1.55;;;0.98;;
7440;SDS011;29616;51.950;8.572;2022-09-09T14:36:03;1.90;;;0.90;;
7440;SDS011;29616;51.950;8.572;2022-09-09T14:38:32;2.50;;;0.90;;
7440;SDS011;29616;51.950;8.572;2022-09-09T14:41:05;2.35;;;0.80;;
7440;SDS011;29616;51.950;8.572;2022-09-09T14:43:34;3.30;;;0.70;;
7440;SDS011;29616;51.950;8.572;2022-09-09T14:46:07;2.83;;;0.70;;
7440;SDS011;29616;51.950;8.572;2022-09-09T14:48:37;2.83;;;0.90;;
7440;SDS011;29616;51.950;8.572;2022-09-09T14:51:07;3.05;;;1.15;;
7440;SDS011;29616;51.950;8.572;2022-09-09T14:53:37;2.72;;;0.80;;
7440;SDS011;29616;51.950;8.572;2022-09-09T14:56:06;2.92;;;1.13;;
7440;SDS011;29616;51.950;8.572;2022-09-09T14:58:36;1.80;;;0.80;;
7440;SDS011;29616;51.950;8.572;2022-09-09T15:01:06;4.07;;;1.30;;
7440;SDS011;29616;51.950;8.572;2022-09-09T15:03:37;2.45;;;0.95;;
7440;SDS011;29616;51.950;8.572;2022-09-09T15:06:06;3.03;;;1.20;;
7440;SDS011;29616;51.950;8.572;2022-09-09T15:08:36;4.03;;;1.10;;
7440;SDS011;29616;51.950;8.572;2022-09-09T15:11:08;3.20;;;0.93;;
7440;SDS011;29616;51.950;8.572;2022-09-09T15:13:38;2.30;;;1.10;;
7440;SDS011;29616;51.950;8.572;2022-09-09T15:16:11;1.48;;;0.90;;
7440;SDS011;29616;51.950;8.572;2022-09-09T15:18:41;1.92;;;0.98;;
7440;SDS011;29616;51.950;8.572;2022-09-09T15:21:11;1.88;;;1.02;;
7440;SDS011;29616;51.950;8.572;2022-09-09T15:23:40;2.05;;;0.80;;
7440;SDS011;29616;51.950;8.572;2022-09-09T15:26:10;1.80;;;0.93;;
7440;SDS011;29616;51.950;8.572;2022-09-09T15:28:40;3.65;;;0.88;;
7440;SDS011;29616;51.950;8.572;2022-09-09T15:31:12;4.35;;;1.00;;
7440;SDS011;29616;51.950;8.572;2022-09-09T15:33:46;2.10;;;0.80;;
7440;SDS011;29616;51.950;8.572;2022-09-09T15:36:16;1.92;;;1.08;;
7440;SDS011;29616;51.950;8.572;2022-09-09T15:38:46;4.70;;;1.60;;
7440;SDS011;29616;51.950;8.572;2022-09-09T15:41:14;4.28;;;1.00;;
7440;SDS011;29616;51.950;8.572;2022-09-09T15:43:44;4.05;;;1.15;;
7440;SDS011;29616;51.950;8.572;2022-09-09T15:46:25;1.98;;;0.90;;
7440;SDS011;29616;51.950;8.572;2022-09-09T15:49:02;1.20;;;0.90;;
7440;SDS011;29616;51.950;8.572;2022-09-09T15:51:32;2.75;;;1.00;;
7440;SDS011;29616;51.950;8.572;2022-09-09T15:54:09;2.22;;;1.10;;
7440;SDS011;29616;51.950;8.572;2022-09-09T15:56:39;2.85;;;0.90;;
7440;SDS011;29616;51.950;8.572;2022-09-09T15:59:08;2.97;;;1.00;;
7440;SDS011;29616;51.950;8.572;2022-09-09T16:01:39;6.00;;;1.15;;
7440;SDS011;29616;51.950;8.572;2022-09-09T16:04:08;2.00;;;1.00;;
7440;SDS011;29616;51.950;8.572;2022-09-09T16:06:37;2.00;;;0.95;;
7440;SDS011;29616;51.950;8.572;2022-09-09T16:09:06;1.45;;;0.98;;
7440;SDS011;29616;51.950;8.572;2022-09-09T16:11:37;2.75;;;1.40;;
7440;SDS011;29616;51.950;8.572;2022-09-09T16:14:05;3.33;;;1.00;;
7440;SDS011;29616;51.950;8.572;2022-09-09T16:16:34;2.10;;;1.00;;
7440;SDS011;29616;51.950;8.572;2022-09-09T16:19:05;5.28;;;1.20;;
7440;SDS011;29616;51.950;8.572;2022-09-09T16:21:36;2.30;;;1.10;;
7440;SDS011;29616;51.950;8.572;2022-09-09T16:24:08;4.00;;;1.33;;
7440;SDS011;29616;51.950;8.572;2022-09-09T16:26:39;1.95;;;1.20;;
7440;SDS011;29616;51.950;8.572;2022-09-09T16:29:10;2.47;;;1.00;;
7440;SDS011;29616;51.950;8.572;2022-09-09T16:31:39;4.45;;;1.30;;
7440;SDS011;29616;51.950;8.572;2022-09-09T16:34:10;3.17;;;1.25;;
7440;SDS011;29616;51.950;8.572;2022-09-09T16:36:39;2.50;;;1.10;;
7440;SDS011;29616;51.950;8.572;2022-09-09T16:39:10;2.92;;;1.30;;
7440;SDS011;29616;51.950;8.572;2022-09-09T16:44:11;2.10;;;1.40;;
7440;SDS011;29616;51.950;8.572;2022-09-09T16:46:42;4.78;;;1.30;;
7440;SDS011;29616;51.950;8.572;2022-09-09T16:49:13;2.90;;;1.30;;
7440;SDS011;29616;51.950;8.572;2022-09-09T16:51:42;4.87;;;1.40;;
7440;SDS011;29616;51.950;8.572;2022-09-09T16:54:14;5.25;;;1.63;;
7440;SDS011;29616;51.950;8.572;2022-09-09T16:56:47;4.47;;;1.38;;
7440;SDS011;29616;51.950;8.572;2022-09-09T16:59:16;3.78;;;1.83;;
7440;SDS011;29616;51.950;8.572;2022-09-09T17:01:47;2.40;;;1.90;;
7440;SDS011;29616;51.950;8.572;2022-09-09T17:04:20;4.30;;;1.70;;
7440;SDS011;29616;51.950;8.572;2022-09-09T17:06:53;6.88;;;2.40;;
7440;SDS011;29616;51.950;8.572;2022-09-09T17:09:24;2.00;;;1.33;;
7440;SDS011;29616;51.950;8.572;2022-09-09T17:11:55;2.47;;;1.48;;
7440;SDS011;29616;51.950;8.572;2022-09-09T17:14:25;2.25;;;1.50;;
7440;SDS011;29616;51.950;8.572;2022-09-09T17:16:53;2.47;;;1.40;;
7440;SDS011;29616;51.950;8.572;2022-09-09T17:19:43;4.50;;;1.40;;
7440;SDS011;29616;51.950;8.572;2022-09-09T17:22:11;4.63;;;1.80;;
7440;SDS011;29616;51.950;8.572;2022-09-09T17:24:42;5.68;;;1.50;;
7440;SDS011;29616;51.950;8.572;2022-09-09T17:27:11;5.72;;;1.63;;
7440;SDS011;29616;51.950;8.572;2022-09-09T17:29:40;3.30;;;1.58;;
7440;SDS011;29616;51.950;8.572;2022-09-09T17:32:09;5.53;;;2.13;;
7440;SDS011;29616;51.950;8.572;2022-09-09T17:34:37;5.07;;;1.60;;
7440;SDS011;29616;51.950;8.572;2022-09-09T17:37:06;4.13;;;1.90;;
7440;SDS011;29616;51.950;8.572;2022-09-09T17:39:34;10.27;;;3.05;;
7440;SDS011;29616;51.950;8.572;2022-09-09T17:42:03;7.72;;;2.60;;
7440;SDS011;29616;51.950;8.572;2022-09-09T17:44:33;4.40;;;2.15;;
7440;SDS011;29616;51.950;8.572;2022-09-09T17:47:02;3.83;;;1.63;;
7440;SDS011;29616;51.950;8.572;2022-09-09T17:49:32;6.35;;;2.03;;
7440;SDS011;29616;51.950;8.572;2022-09-09T17:52:03;5.10;;;2.30;;
7440;SDS011;29616;51.950;8.572;2022-09-09T17:54:33;7.35;;;2.67;;
7440;SDS011;29616;51.950;8.572;2022-09-09T17:57:01;2.10;;;1.90;;
7440;SDS011;29616;51.950;8.572;2022-09-09T17:59:29;5.95;;;2.35;;
7440;SDS011;29616;51.950;8.572;2022-09-09T18:01:58;7.72;;;1.80;;
7440;SDS011;29616;51.950;8.572;2022-09-09T18:04:27;11.13;;;2.25;;
7440;SDS011;29616;51.950;8.572;2022-09-09T18:06:55;4.68;;;1.88;;
7440;SDS011;29616;51.950;8.572;2022-09-09T18:09:25;4.30;;;2.17;;
7440;SDS011;29616;51.950;8.572;2022-09-09T18:11:56;5.32;;;2.50;;
7440;SDS011;29616;51.950;8.572;2022-09-09T18:14:26;7.28;;;2.22;;
7440;SDS011;29616;51.950;8.572;2022-09-09T18:16:57;4.65;;;2.50;;
7440;SDS011;29616;51.950;8.572;2022-09-09T18:19:27;4.05;;;2.00;;
7440;SDS011;29616;51.950;8.572;2022-09-09T18:21:58;4.25;;;2.17;;
7440;SDS011;29616;51.950;8.572;2022-09-09T18:24:28;4.18;;;2.08;;
7440;SDS011;29616;51.950;8.572;2022-09-09T18:26:58;3.85;;;2.00;;
7440;SDS011;29616;51.950;8.572;2022-09-09T18:29:26;6.10;;;2.00;;
7440;SDS011;29616;51.950;8.572;2022-09-09T18:31:55;3.08;;;1.98;;
7440;SDS011;29616;51.950;8.572;2022-09-09T18:34:23;5.40;;;2.03;;
7440;SDS011;29616;51.950;8.572;2022-09-09T18:36:54;4.85;;;1.80;;
7440;SDS011;29616;51.950;8.572;2022-09-09T18:39:24;5.57;;;1.98;;
7440;SDS011;29616;51.950;8.572;2022-09-09T18:41:54;3.20;;;1.90;;
7440;SDS011;29616;51.950;8.572;2022-09-09T18:46:56;5.13;;;1.90;;
7440;SDS011;29616;51.950;8.572;2022-09-09T18:49:25;5.15;;;2.03;;
7440;SDS011;29616;51.950;8.572;2022-09-09T18:51:54;4.50;;;2.17;;
7440;SDS011;29616;51.950;8.572;2022-09-09T18:54:30;5.35;;;2.30;;
7440;SDS011;29616;51.950;8.572;2022-09-09T18:57:00;6.28;;;2.65;;
7440;SDS011;29616;51.950;8.572;2022-09-09T18:59:31;4.80;;;1.92;;
7440;SDS011;29616;51.950;8.572;2022-09-09T19:01:59;3.60;;;2.28;;
7440;SDS011;29616;51.950;8.572;2022-09-09T19:04:30;4.90;;;2.47;;
7440;SDS011;29616;51.950;8.572;2022-09-09T19:06:58;6.80;;;2.50;;
7440;SDS011;29616;51.950;8.572;2022-09-09T19:09:44;6.60;;;2.70;;
7440;SDS011;29616;51.950;8.572;2022-09-09T19:12:17;8.45;;;2.40;;
7440;SDS011;29616;51.950;8.572;2022-09-09T19:14:54;7.10;;;2.53;;
7440;SDS011;29616;51.950;8.572;2022-09-09T19:17:26;6.40;;;2.22;;
7440;SDS011;29616;51.950;8.572;2022-09-09T19:19:55;3.97;;;2.20;;
7440;SDS011;29616;51.950;8.572;2022-09-09T19:22:23;5.03;;;2.47;;
7440;SDS011;29616;51.950;8.572;2022-09-09T19:24:58;4.70;;;2.25;;
7440;SDS011;29616;51.950;8.572;2022-09-09T19:27:34;7.60;;;2.92;;
7440;SDS011;29616;51.950;8.572;2022-09-09T19:30:11;3.23;;;2.60;;
7440;SDS011;29616;51.950;8.572;2022-09-09T19:32:43;4.70;;;2.63;;
7440;SDS011;29616;51.950;8.572;2022-09-09T19:35:21;8.48;;;3.05;;
7440;SDS011;29616;51.950;8.572;2022-09-09T19:37:49;6.50;;;2.90;;
7440;SDS011;29616;51.950;8.572;2022-09-09T19:40:28;5.38;;;2.70;;
7440;SDS011;29616;51.950;8.572;2022-09-09T19:42:57;5.65;;;2.55;;
7440;SDS011;29616;51.950;8.572;2022-09-09T19:45:32;4.32;;;2.40;;
7440;SDS011;29616;51.950;8.572;2022-09-09T19:48:02;6.43;;;2.25;;
7440;SDS011;29616;51.950;8.572;2022-09-09T19:50:35;3.60;;;2.45;;
7440;SDS011;29616;51.950;8.572;2022-09-09T19:53:04;3.83;;;2.25;;
7440;SDS011;29616;51.950;8.572;2022-09-09T19:55:32;4.25;;;2.30;;
7440;SDS011;29616;51.950;8.572;2022-09-09T19:58:05;4.25;;;2.35;;
7440;SDS011;29616;51.950;8.572;2022-09-09T20:00:34;5.50;;;2.22;;
7440;SDS011;29616;51.950;8.572;2022-09-09T20:03:05;3.53;;;2.45;;
7440;SDS011;29616;51.950;8.572;2022-09-09T20:05:45;6.13;;;2.45;;
7440;SDS011;29616;51.950;8.572;2022-09-09T20:08:15;4.72;;;2.33;;
7440;SDS011;29616;51.950;8.572;2022-09-09T20:10:50;7.38;;;2.60;;
7440;SDS011;29616;51.950;8.572;2022-09-09T20:13:19;5.20;;;2.85;;
7440;SDS011;29616;51.950;8.572;2022-09-09T20:15:55;4.28;;;3.00;;
7440;SDS011;29616;51.950;8.572;2022-09-09T20:18:27;6.88;;;3.03;;
7440;SDS011;29616;51.950;8.572;2022-09-09T20:20:57;5.23;;;2.73;;
7440;SDS011;29616;51.950;8.572;2022-09-09T20:23:26;5.68;;;2.83;;
7440;SDS011;29616;51.950;8.572;2022-09-09T20:25:59;4.85;;;2.33;;
7440;SDS011;29616;51.950;8.572;2022-09-09T20:28:28;6.38;;;3.10;;
7440;SDS011;29616;51.950;8.572;2022-09-09T20:31:02;6.15;;;2.95;;
7440;SDS011;29616;51.950;8.572;2022-09-09T20:33:32;4.70;;;2.80;;
7440;SDS011;29616;51.950;8.572;2022-09-09T20:36:07;6.63;;;2.90;;
7440;SDS011;29616;51.950;8.572;2022-09-09T20:38:40;5.72;;;3.03;;
7440;SDS011;29616;51.950;8.572;2022-09-09T20:41:08;4.60;;;3.25;;
7440;SDS011;29616;51.950;8.572;2022-09-09T20:43:43;7.72;;;3.10;;
7440;SDS011;29616;51.950;8.572;2022-09-09T20:46:15;5.22;;;3.17;;
7440;SDS011;29616;51.950;8.572;2022-09-09T20:48:45;8.80;;;2.90;;